sensor_id;sensor_type;location;lat;lon;timestamp;pressure;altitude;pressure_sealevel;temperature;humidity
25947;BME280;13745;51.470;9.894;2022-07-17T00:02:10;100485.66;;;14.86;49.78
25947;BME280;13745;51.470;9.894;2022-07-17T00:04:56;100488.78;;;14.80;49.79
25947;BME280;13745;51.470;9.894;2022-07-17T00:07:42;100481.53;;;14.71;49.83
25947;BME280;13745;51.470;9.894;2022-07-17T00:10:28;100487.88;;;14.66;50.10
25947;BME280;13745;51.470;9.894;2022-07-17T00:13:14;100483.28;;;14.62;50.21
25947;BME280;13745;51.470;9.894;2022-07-17T00:16:01;100474.69;;;14.55;50.33
25947;BME280;13745;51.470;9.894;2022-07-17T00:18:47;100473.63;;;14.51;50.50
25947;BME280;13745;51.470;9.894;2022-07-17T00:21:33;100478.06;;;14.47;50.58
25947;BME280;13745;51.470;9.894;2022-07-17T00:24:19;100482.47;;;14.43;50.75
25947;BME280;13745;51.470;9.894;2022-07-17T00:27:05;100486.88;;;14.39;50.85
25947;BME280;13745;51.470;9.894;2022-07-17T00:29:51;100483.19;;;14.31;50.86
25947;BME280;13745;51.470;9.894;2022-07-17T00:32:39;100484.94;;;14.22;51.20
25947;BME280;13745;51.470;9.894;2022-07-17T00:35:24;100488.28;;;14.14;51.31
25947;BME280;13745;51.470;9.894;2022-07-17T00:38:10;100479.38;;;14.09;51.35
25947;BME280;13745;51.470;9.894;2022-07-17T00:40:58;100470.91;;;14.10;51.30
25947;BME280;13745;51.470;9.894;2022-07-17T00:43:44;100470.91;;;14.10;51.48
25947;BME280;13745;51.470;9.894;2022-07-17T00:46:30;100468.50;;;14.09;51.59
25947;BME280;13745;51.470;9.894;2022-07-17T00:49:17;100475.91;;;14.03;51.68
25947;BME280;13745;51.470;9.894;2022-07-17T00:52:03;100479.28;;;13.95;51.85
25947;BME280;13745;51.470;9.894;2022-07-17T00:54:50;100484.72;;;13.95;51.94
25947;BME280;13745;51.470;9.894;2022-07-17T00:57:39;100474.97;;;13.89;52.17
25947;BME280;13745;51.470;9.894;2022-07-17T01:00:25;100477.94;;;13.88;52.12
25947;BME280;13745;51.470;9.894;2022-07-17T01:03:11;100470.38;;;13.90;51.97
25947;BME280;13745;51.470;9.894;2022-07-17T01:05:58;100467.91;;;13.88;52.13
25947;BME280;13745;51.470;9.894;2022-07-17T01:08:44;100472.28;;;13.85;52.25
25947;BME280;13745;51.470;9.894;2022-07-17T01:11:31;100473.09;;;13.85;52.25
25947;BME280;13745;51.470;9.894;2022-07-17T01:14:17;100468.53;;;13.81;52.34
25947;BME280;13745;51.470;9.894;2022-07-17T01:17:03;100468.56;;;13.76;52.49
25947;BME280;13745;51.470;9.894;2022-07-17T01:19:49;100471.88;;;13.73;52.67
25947;BME280;13745;51.470;9.894;2022-07-17T01:22:41;100469.13;;;13.73;52.60
25947;BME280;13745;51.470;9.894;2022-07-17T01:25:27;100466.13;;;13.74;52.58
25947;BME280;13745;51.470;9.894;2022-07-17T01:28:13;100469.13;;;13.73;52.65
25947;BME280;13745;51.470;9.894;2022-07-17T01:31:00;100467.53;;;13.72;52.74
25947;BME280;13745;51.470;9.894;2022-07-17T01:33:48;100465.91;;;13.71;52.80
25947;BME280;13745;51.470;9.894;2022-07-17T01:36:34;100474.13;;;13.66;52.94
25947;BME280;13745;51.470;9.894;2022-07-17T01:39:21;100468.22;;;13.59;53.20
25947;BME280;13745;51.470;9.894;2022-07-17T01:42:27;100471.00;;;13.54;52.94
25947;BME280;13745;51.470;9.894;2022-07-17T01:45:14;100476.47;;;13.49;53.32
25947;BME280;13745;51.470;9.894;2022-07-17T01:48:01;100465.63;;;13.44;53.32
25947;BME280;13745;51.470;9.894;2022-07-17T01:50:46;100471.97;;;13.35;53.21
25947;BME280;13745;51.470;9.894;2022-07-17T01:53:33;100473.94;;;13.30;53.55
25947;BME280;13745;51.470;9.894;2022-07-17T01:56:20;100475.59;;;13.26;53.51
25947;BME280;13745;51.470;9.894;2022-07-17T01:59:05;100472.41;;;13.19;53.49
25947;BME280;13745;51.470;9.894;2022-07-17T02:01:55;100475.72;;;13.11;53.99
25947;BME280;13745;51.470;9.894;2022-07-17T02:04:41;100482.31;;;13.05;54.03
25947;BME280;13745;51.470;9.894;2022-07-17T02:07:27;100483.94;;;13.01;53.91
25947;BME280;13745;51.470;9.894;2022-07-17T02:10:13;100484.84;;;12.92;54.17
25947;BME280;13745;51.470;9.894;2022-07-17T02:13:01;100479.72;;;12.91;53.84
25947;BME280;13745;51.470;9.894;2022-07-17T02:15:47;100483.81;;;12.83;54.03
25947;BME280;13745;51.470;9.894;2022-07-17T02:18:33;100473.25;;;12.77;54.12
25947;BME280;13745;51.470;9.894;2022-07-17T02:21:18;100465.16;;;12.72;54.14
25947;BME280;13745;51.470;9.894;2022-07-17T02:24:05;100483.06;;;12.73;54.29
25947;BME280;13745;51.470;9.894;2022-07-17T02:26:50;100474.69;;;12.70;54.49
25947;BME280;13745;51.470;9.894;2022-07-17T02:29:37;100481.75;;;12.66;54.65
25947;BME280;13745;51.470;9.894;2022-07-17T02:32:23;100486.44;;;12.55;54.52
25947;BME280;13745;51.470;9.894;2022-07-17T02:35:10;100479.38;;;12.54;54.61
25947;BME280;13745;51.470;9.894;2022-07-17T02:37:56;100485.09;;;12.53;55.08
25947;BME280;13745;51.470;9.894;2022-07-17T02:40:42;100493.25;;;12.48;54.84
25947;BME280;13745;51.470;9.894;2022-07-17T02:43:28;100490.84;;;12.42;55.13
25947;BME280;13745;51.470;9.894;2022-07-17T02:46:16;100498.47;;;12.40;55.34
25947;BME280;13745;51.470;9.894;2022-07-17T02:49:01;100490.34;;;12.35;55.33
25947;BME280;13745;51.470;9.894;2022-07-17T02:51:47;100494.72;;;12.26;55.04
25947;BME280;13745;51.470;9.894;2022-07-17T02:54:33;100494.22;;;12.19;55.12
25947;BME280;13745;51.470;9.894;2022-07-17T02:57:19;100495.88;;;12.15;55.70
25947;BME280;13745;51.470;9.894;2022-07-17T03:00:08;100490.16;;;12.12;55.45
25947;BME280;13745;51.470;9.894;2022-07-17T03:02:56;100497.53;;;12.07;55.61
25947;BME280;13745;51.470;9.894;2022-07-17T03:05:42;100500.53;;;12.05;56.03
25947;BME280;13745;51.470;9.894;2022-07-17T03:08:28;100501.84;;;12.08;55.31
25947;BME280;13745;51.470;9.894;2022-07-17T03:11:13;100506.22;;;12.04;56.20
25947;BME280;13745;51.470;9.894;2022-07-17T03:13:59;100495.38;;;11.99;56.04
25947;BME280;13745;51.470;9.894;2022-07-17T03:16:47;100492.66;;;11.99;56.00
25947;BME280;13745;51.470;9.894;2022-07-17T03:19:34;100484.50;;;11.99;55.88
25947;BME280;13745;51.470;9.894;2022-07-17T03:22:20;100495.94;;;11.96;56.22
25947;BME280;13745;51.470;9.894;2022-07-17T03:25:07;100486.72;;;11.87;56.55
25947;BME280;13745;51.470;9.894;2022-07-17T03:27:53;100497.03;;;11.85;56.23
25947;BME280;13745;51.470;9.894;2022-07-17T03:30:39;100492.44;;;11.81;56.16
25947;BME280;13745;51.470;9.894;2022-07-17T03:33:25;100505.19;;;11.85;56.55
25947;BME280;13745;51.470;9.894;2022-07-17T03:36:12;100498.16;;;11.79;56.63
25947;BME280;13745;51.470;9.894;2022-07-17T03:38:58;100498.72;;;11.71;56.55
25947;BME280;13745;51.470;9.894;2022-07-17T03:41:43;100498.19;;;11.69;56.72
25947;BME280;13745;51.470;9.894;2022-07-17T03:44:29;100501.41;;;11.71;56.62
25947;BME280;13745;51.470;9.894;2022-07-17T03:47:15;100498.97;;;11.75;56.56
25947;BME280;13745;51.470;9.894;2022-07-17T03:50:01;100509.00;;;11.79;56.98
25947;BME280;13745;51.470;9.894;2022-07-17T03:52:49;100514.97;;;11.81;57.06
25947;BME280;13745;51.470;9.894;2022-07-17T03:55:34;100510.63;;;11.80;57.01
25947;BME280;13745;51.470;9.894;2022-07-17T03:58:20;100505.19;;;11.85;56.71
25947;BME280;13745;51.470;9.894;2022-07-17T04:01:06;100509.81;;;11.89;57.21
25947;BME280;13745;51.470;9.894;2022-07-17T04:03:52;100520.38;;;11.91;57.06
25947;BME280;13745;51.470;9.894;2022-07-17T04:06:38;100520.91;;;11.88;57.20
25947;BME280;13745;51.470;9.894;2022-07-17T04:09:25;100516.56;;;11.87;57.34
25947;BME280;13745;51.470;9.894;2022-07-17T04:12:11;100523.63;;;11.88;57.45
25947;BME280;13745;51.470;9.894;2022-07-17T04:14:57;100523.63;;;11.93;57.22
25947;BME280;13745;51.470;9.894;2022-07-17T04:17:43;100528.50;;;11.96;57.34
25947;BME280;13745;51.470;9.894;2022-07-17T04:20:29;100541.50;;;11.99;57.41
25947;BME280;13745;51.470;9.894;2022-07-17T04:23:15;100538.78;;;11.99;57.19
25947;BME280;13745;51.470;9.894;2022-07-17T04:26:03;100539.06;;;11.97;57.41
25947;BME280;13745;51.470;9.894;2022-07-17T04:28:48;100547.22;;;11.97;57.43
25947;BME280;13745;51.470;9.894;2022-07-17T04:31:34;100547.47;;;12.01;57.55
25947;BME280;13745;51.470;9.894;2022-07-17T04:34:20;100546.38;;;12.07;57.64
25947;BME280;13745;51.470;9.894;2022-07-17T04:37:06;100550.69;;;12.12;57.27
25947;BME280;13745;51.470;9.894;2022-07-17T04:39:52;100558.28;;;12.20;57.32
25947;BME280;13745;51.470;9.894;2022-07-17T04:42:39;100559.63;;;12.28;57.39
25947;BME280;13745;51.470;9.894;2022-07-17T04:45:25;100566.38;;;12.35;57.07
25947;BME280;13745;51.470;9.894;2022-07-17T04:48:11;100571.25;;;12.43;57.10
25947;BME280;13745;51.470;9.894;2022-07-17T04:50:57;100569.56;;;12.52;57.09
25947;BME280;13745;51.470;9.894;2022-07-17T04:53:43;100569.56;;;12.56;56.83
25947;BME280;13745;51.470;9.894;2022-07-17T04:56:28;100562.47;;;12.60;56.66
25947;BME280;13745;51.470;9.894;2022-07-17T04:59:16;100564.09;;;12.66;56.98
25947;BME280;13745;51.470;9.894;2022-07-17T05:02:02;100558.59;;;12.76;57.09
25947;BME280;13745;51.470;9.894;2022-07-17T05:04:47;100558.84;;;12.84;56.95
25947;BME280;13745;51.470;9.894;2022-07-17T05:07:33;100558.50;;;12.96;56.79
25947;BME280;13745;51.470;9.894;2022-07-17T05:10:19;100560.31;;;13.10;56.83
25947;BME280;13745;51.470;9.894;2022-07-17T05:13:05;100561.56;;;13.22;56.64
25947;BME280;13745;51.470;9.894;2022-07-17T05:15:53;100554.41;;;13.36;56.34
25947;BME280;13745;51.470;9.894;2022-07-17T05:18:39;100554.56;;;13.49;56.47
25947;BME280;13745;51.470;9.894;2022-07-17T05:21:25;100549.03;;;13.59;56.28
25947;BME280;13745;51.470;9.894;2022-07-17T05:24:11;100537.47;;;13.71;56.17
25947;BME280;13745;51.470;9.894;2022-07-17T05:26:56;100540.06;;;13.86;56.17
25947;BME280;13745;51.470;9.894;2022-07-17T05:29:42;100532.56;;;14.01;55.89
25947;BME280;13745;51.470;9.894;2022-07-17T05:32:30;100532.34;;;14.21;55.71
25947;BME280;13745;51.470;9.894;2022-07-17T05:35:16;100528.34;;;14.36;55.59
25947;BME280;13745;51.470;9.894;2022-07-17T05:38:02;100520.56;;;14.48;55.41
25947;BME280;13745;51.470;9.894;2022-07-17T05:40:49;100528.00;;;14.61;55.32
25947;BME280;13745;51.470;9.894;2022-07-17T05:43:35;100560.00;;;14.74;55.08
25947;BME280;13745;51.470;9.894;2022-07-17T05:46:20;100592.47;;;14.93;54.75
25947;BME280;13745;51.470;9.894;2022-07-17T05:49:08;100613.59;;;15.06;54.90
25947;BME280;13745;51.470;9.894;2022-07-17T05:51:54;100615.41;;;15.15;54.69
25947;BME280;13745;51.470;9.894;2022-07-17T05:54:39;100608.09;;;15.29;54.74
25947;BME280;13745;51.470;9.894;2022-07-17T05:57:25;100601.28;;;15.45;54.30
25947;BME280;13745;51.470;9.894;2022-07-17T06:00:11;100595.28;;;15.61;54.42
25947;BME280;13745;51.470;9.894;2022-07-17T06:02:57;100588.47;;;15.76;54.28
25947;BME280;13745;51.470;9.894;2022-07-17T06:05:44;100596.44;;;15.91;53.93
25947;BME280;13745;51.470;9.894;2022-07-17T06:08:30;100591.22;;;16.08;53.72
25947;BME280;13745;51.470;9.894;2022-07-17T06:11:16;100587.09;;;16.23;53.43
25947;BME280;13745;51.470;9.894;2022-07-17T06:14:02;100593.88;;;16.39;52.98
25947;BME280;13745;51.470;9.894;2022-07-17T06:16:48;100595.72;;;16.57;52.89
25947;BME280;13745;51.470;9.894;2022-07-17T06:19:34;100590.44;;;16.73;52.85
25947;BME280;13745;51.470;9.894;2022-07-17T06:22:21;100576.06;;;16.94;52.50
25947;BME280;13745;51.470;9.894;2022-07-17T06:25:08;100580.41;;;17.08;52.32
25947;BME280;13745;51.470;9.894;2022-07-17T06:27:54;100581.69;;;17.24;52.20
25947;BME280;13745;51.470;9.894;2022-07-17T06:30:40;100570.06;;;17.40;52.20
25947;BME280;13745;51.470;9.894;2022-07-17T06:33:26;100550.72;;;17.58;51.84
25947;BME280;13745;51.470;9.894;2022-07-17T06:36:12;100555.50;;;17.74;51.39
25947;BME280;13745;51.470;9.894;2022-07-17T06:38:59;100562.75;;;17.92;51.19
25947;BME280;13745;51.470;9.894;2022-07-17T06:41:45;100560.91;;;18.09;50.96
25947;BME280;13745;51.470;9.894;2022-07-17T06:44:33;100567.59;;;18.25;50.63
25947;BME280;13745;51.470;9.894;2022-07-17T06:47:19;100569.13;;;18.39;50.46
25947;BME280;13745;51.470;9.894;2022-07-17T06:50:06;100569.81;;;18.53;50.15
25947;BME280;13745;51.470;9.894;2022-07-17T06:52:53;100569.25;;;18.72;49.89
25947;BME280;13745;51.470;9.894;2022-07-17T06:55:40;100578.69;;;18.88;49.58
25947;BME280;13745;51.470;9.894;2022-07-17T06:58:27;100575.47;;;19.03;49.41
25947;BME280;13745;51.470;9.894;2022-07-17T07:01:13;100574.72;;;19.19;49.03
25947;BME280;13745;51.470;9.894;2022-07-17T07:03:58;100570.03;;;19.36;48.70
25947;BME280;13745;51.470;9.894;2022-07-17T07:06:45;100568.59;;;19.55;48.46
25947;BME280;13745;51.470;9.894;2022-07-17T07:09:30;100563.75;;;19.69;48.32
25947;BME280;13745;51.470;9.894;2022-07-17T07:12:18;100567.00;;;19.71;47.99
25947;BME280;13745;51.470;9.894;2022-07-17T07:15:04;100581.19;;;19.89;47.64
25947;BME280;13745;51.470;9.894;2022-07-17T07:17:50;100578.72;;;20.13;47.27
25947;BME280;13745;51.470;9.894;2022-07-17T07:20:38;100568.97;;;20.32;46.95
25947;BME280;13745;51.470;9.894;2022-07-17T07:23:23;100577.03;;;20.45;46.74
25947;BME280;13745;51.470;9.894;2022-07-17T07:26:09;100575.53;;;20.56;46.51
25947;BME280;13745;51.470;9.894;2022-07-17T07:28:56;100568.31;;;20.71;46.40
25947;BME280;13745;51.470;9.894;2022-07-17T07:31:42;100567.53;;;20.91;46.23
25947;BME280;13745;51.470;9.894;2022-07-17T07:34:28;100563.56;;;21.09;45.68
25947;BME280;13745;51.470;9.894;2022-07-17T07:37:14;100559.09;;;21.24;45.32
25947;BME280;13745;51.470;9.894;2022-07-17T07:40:00;100562.06;;;21.39;44.94
25947;BME280;13745;51.470;9.894;2022-07-17T07:42:46;100555.47;;;21.52;44.90
25947;BME280;13745;51.470;9.894;2022-07-17T07:45:33;100560.22;;;21.63;44.60
25947;BME280;13745;51.470;9.894;2022-07-17T07:48:19;100558.66;;;21.74;44.45
25947;BME280;13745;51.470;9.894;2022-07-17T07:51:05;100546.88;;;21.85;44.21
25947;BME280;13745;51.470;9.894;2022-07-17T07:53:51;100549.81;;;22.00;44.16
25947;BME280;13745;51.470;9.894;2022-07-17T07:56:37;100544.94;;;22.18;43.78
25947;BME280;13745;51.470;9.894;2022-07-17T07:59:23;100541.41;;;22.29;43.56
25947;BME280;13745;51.470;9.894;2022-07-17T08:02:10;100543.50;;;22.44;43.20
25947;BME280;13745;51.470;9.894;2022-07-17T08:04:56;100541.56;;;22.56;42.82
25947;BME280;13745;51.470;9.894;2022-07-17T08:07:42;100542.84;;;22.70;42.69
25947;BME280;13745;51.470;9.894;2022-07-17T08:10:28;100549.63;;;22.84;42.46
25947;BME280;13745;51.470;9.894;2022-07-17T08:13:14;100554.81;;;22.97;42.36
25947;BME280;13745;51.470;9.894;2022-07-17T08:16:01;100552.03;;;23.09;42.07
25947;BME280;13745;51.470;9.894;2022-07-17T08:18:48;100537.47;;;23.24;41.71
25947;BME280;13745;51.470;9.894;2022-07-17T08:21:34;100548.06;;;23.34;41.70
25947;BME280;13745;51.470;9.894;2022-07-17T08:24:20;100535.47;;;23.48;41.77
25947;BME280;13745;51.470;9.894;2022-07-17T08:27:06;100539.00;;;23.60;41.37
25947;BME280;13745;51.470;9.894;2022-07-17T08:29:51;100536.56;;;23.70;41.01
25947;BME280;13745;51.470;9.894;2022-07-17T08:32:38;100533.75;;;23.82;40.66
25947;BME280;13745;51.470;9.894;2022-07-17T08:35:25;100552.69;;;23.95;40.38
25947;BME280;13745;51.470;9.894;2022-07-17T08:38:11;100555.66;;;24.02;40.03
25947;BME280;13745;51.470;9.894;2022-07-17T08:40:57;100556.34;;;24.11;39.60
25947;BME280;13745;51.470;9.894;2022-07-17T08:43:43;100541.09;;;24.17;39.11
25947;BME280;13745;51.470;9.894;2022-07-17T08:46:32;100536.22;;;24.14;38.76
25947;BME280;13745;51.470;9.894;2022-07-17T08:49:21;100545.91;;;24.20;38.74
25947;BME280;13745;51.470;9.894;2022-07-17T08:52:09;100547.31;;;24.29;38.29
25947;BME280;13745;51.470;9.894;2022-07-17T08:54:55;100537.81;;;24.42;37.58
25947;BME280;13745;51.470;9.894;2022-07-17T08:57:42;100542.91;;;24.55;37.44
25947;BME280;13745;51.470;9.894;2022-07-17T09:00:29;100550.41;;;24.70;36.84
25947;BME280;13745;51.470;9.894;2022-07-17T09:03:15;100543.63;;;24.82;36.30
25947;BME280;13745;51.470;9.894;2022-07-17T09:06:02;100551.03;;;24.94;36.12
25947;BME280;13745;51.470;9.894;2022-07-17T09:09:00;100551.25;;;25.04;35.88
25947;BME280;13745;51.470;9.894;2022-07-17T09:11:48;100548.53;;;25.22;35.82
25947;BME280;13745;51.470;9.894;2022-07-17T09:14:39;100550.66;;;25.44;35.51
25947;BME280;13745;51.470;9.894;2022-07-17T09:17:25;100551.03;;;25.61;35.40
25947;BME280;13745;51.470;9.894;2022-07-17T09:20:13;100544.22;;;25.77;35.21
25947;BME280;13745;51.470;9.894;2022-07-17T09:23:01;100547.38;;;25.94;35.12
25947;BME280;13745;51.470;9.894;2022-07-17T09:25:50;100548.09;;;26.10;34.88
25947;BME280;13745;51.470;9.894;2022-07-17T09:28:44;100545.75;;;26.30;34.32
25947;BME280;13745;51.470;9.894;2022-07-17T09:31:32;100553.56;;;26.47;34.02
25947;BME280;13745;51.470;9.894;2022-07-17T09:34:19;100545.44;;;26.57;33.44
25947;BME280;13745;51.470;9.894;2022-07-17T09:37:05;100538.09;;;26.68;33.63
25947;BME280;13745;51.470;9.894;2022-07-17T09:39:51;100539.19;;;26.86;33.67
25947;BME280;13745;51.470;9.894;2022-07-17T09:42:40;100546.63;;;27.04;33.29
25947;BME280;13745;51.470;9.894;2022-07-17T09:45:26;100542.13;;;27.18;33.11
25947;BME280;13745;51.470;9.894;2022-07-17T09:48:12;100535.97;;;27.31;32.75
25947;BME280;13745;51.470;9.894;2022-07-17T09:50:59;100531.69;;;27.41;32.93
25947;BME280;13745;51.470;9.894;2022-07-17T09:53:47;100538.22;;;27.51;32.41
25947;BME280;13745;51.470;9.894;2022-07-17T09:56:34;100532.81;;;27.65;32.37
25947;BME280;13745;51.470;9.894;2022-07-17T09:59:21;100537.38;;;27.76;31.54
25947;BME280;13745;51.470;9.894;2022-07-17T10:02:09;100531.34;;;27.74;31.71
25947;BME280;13745;51.470;9.894;2022-07-17T10:04:55;100531.91;;;27.83;31.22
25947;BME280;13745;51.470;9.894;2022-07-17T10:07:41;100528.31;;;27.83;30.94
25947;BME280;13745;51.470;9.894;2022-07-17T10:10:27;100533.22;;;27.92;31.25
25947;BME280;13745;51.470;9.894;2022-07-17T10:13:13;100533.38;;;28.06;30.52
25947;BME280;13745;51.470;9.894;2022-07-17T10:16:02;100531.38;;;28.07;30.11
25947;BME280;13745;51.470;9.894;2022-07-17T10:18:48;100532.25;;;28.14;30.01
25947;BME280;13745;51.470;9.894;2022-07-17T10:21:36;100526.75;;;28.21;29.84
25947;BME280;13745;51.470;9.894;2022-07-17T10:24:23;100521.34;;;28.34;29.76
25947;BME280;13745;51.470;9.894;2022-07-17T10:27:17;100525.50;;;28.54;29.66
25947;BME280;13745;51.470;9.894;2022-07-17T10:30:05;100519.72;;;28.73;29.25
25947;BME280;13745;51.470;9.894;2022-07-17T10:32:56;100516.25;;;28.89;28.75
25947;BME280;13745;51.470;9.894;2022-07-17T10:35:46;100522.34;;;28.98;28.48
25947;BME280;13745;51.470;9.894;2022-07-17T10:38:41;100523.63;;;29.11;27.81
25947;BME280;13745;51.470;9.894;2022-07-17T10:41:27;100517.19;;;29.03;27.69
25947;BME280;13745;51.470;9.894;2022-07-17T10:44:24;100522.91;;;29.27;27.19
25947;BME280;13745;51.470;9.894;2022-07-17T10:47:10;100523.25;;;29.89;26.45
25947;BME280;13745;51.470;9.894;2022-07-17T10:49:57;100509.03;;;30.49;26.13
25947;BME280;13745;51.470;9.894;2022-07-17T10:52:44;100523.50;;;31.06;25.86
25947;BME280;13745;51.470;9.894;2022-07-17T10:55:30;100510.16;;;31.54;25.53
25947;BME280;13745;51.470;9.894;2022-07-17T10:58:19;100507.28;;;31.81;25.01
25947;BME280;13745;51.470;9.894;2022-07-17T11:01:07;100509.59;;;32.07;24.94
25947;BME280;13745;51.470;9.894;2022-07-17T11:03:55;100507.91;;;32.16;24.91
25947;BME280;13745;51.470;9.894;2022-07-17T11:06:43;100502.28;;;32.16;24.67
25947;BME280;13745;51.470;9.894;2022-07-17T11:09:29;100511.88;;;32.22;24.96
25947;BME280;13745;51.470;9.894;2022-07-17T11:12:16;100506.28;;;32.22;24.92
25947;BME280;13745;51.470;9.894;2022-07-17T11:15:03;100511.53;;;32.13;24.54
25947;BME280;13745;51.470;9.894;2022-07-17T11:17:49;100505.59;;;31.97;24.91
25947;BME280;13745;51.470;9.894;2022-07-17T11:20:35;100504.75;;;32.00;24.18
25947;BME280;13745;51.470;9.894;2022-07-17T11:23:33;100504.88;;;31.83;24.11
25947;BME280;13745;51.470;9.894;2022-07-17T11:26:19;100504.06;;;31.83;24.19
25947;BME280;13745;51.470;9.894;2022-07-17T11:29:06;100491.19;;;31.89;23.64
25947;BME280;13745;51.470;9.894;2022-07-17T11:31:54;100491.97;;;31.96;23.48
25947;BME280;13745;51.470;9.894;2022-07-17T11:34:40;100492.78;;;31.97;23.31
25947;BME280;13745;51.470;9.894;2022-07-17T11:37:28;100497.59;;;31.93;23.19
25947;BME280;13745;51.470;9.894;2022-07-17T11:40:16;100496.00;;;31.92;22.74
25947;BME280;13745;51.470;9.894;2022-07-17T11:43:03;100483.19;;;31.91;22.94
25947;BME280;13745;51.470;9.894;2022-07-17T11:45:50;100490.78;;;31.94;22.59
25947;BME280;13745;51.470;9.894;2022-07-17T11:48:37;100491.59;;;31.94;22.47
25947;BME280;13745;51.470;9.894;2022-07-17T11:51:38;100490.78;;;31.94;22.60
25947;BME280;13745;51.470;9.894;2022-07-17T11:54:26;100482.34;;;31.97;22.04
25947;BME280;13745;51.470;9.894;2022-07-17T11:57:16;100483.56;;;31.93;22.37
25947;BME280;13745;51.470;9.894;2022-07-17T12:00:06;100483.63;;;31.79;21.93
25947;BME280;13745;51.470;9.894;2022-07-17T12:02:58;100484.91;;;31.64;21.64
25947;BME280;13745;51.470;9.894;2022-07-17T12:05:43;100488.16;;;31.59;21.64
25947;BME280;13745;51.470;9.894;2022-07-17T12:08:29;100488.50;;;31.65;21.33
25947;BME280;13745;51.470;9.894;2022-07-17T12:11:15;100482.13;;;31.51;21.24
25947;BME280;13745;51.470;9.894;2022-07-17T12:14:05;100476.94;;;31.52;21.36
25947;BME280;13745;51.470;9.894;2022-07-17T12:16:52;100481.69;;;31.66;21.21
25947;BME280;13745;51.470;9.894;2022-07-17T12:19:37;100470.41;;;31.79;21.01
25947;BME280;13745;51.470;9.894;2022-07-17T12:22:23;100470.91;;;31.64;20.85
25947;BME280;13745;51.470;9.894;2022-07-17T12:25:23;100463.34;;;31.48;21.41
25947;BME280;13745;51.470;9.894;2022-07-17T12:28:09;100463.78;;;31.36;21.89
25947;BME280;13745;51.470;9.894;2022-07-17T12:30:56;100461.41;;;31.31;22.03
25947;BME280;13745;51.470;9.894;2022-07-17T12:33:42;100465.81;;;31.25;22.26
25947;BME280;13745;51.470;9.894;2022-07-17T12:36:28;100468.25;;;31.20;22.04
25947;BME280;13745;51.470;9.894;2022-07-17T12:39:14;100461.06;;;31.19;22.28
25947;BME280;13745;51.470;9.894;2022-07-17T12:42:00;100454.66;;;31.18;22.78
25947;BME280;13745;51.470;9.894;2022-07-17T12:44:46;100463.44;;;31.20;22.97
25947;BME280;13745;51.470;9.894;2022-07-17T12:47:33;100457.81;;;31.27;23.08
25947;BME280;13745;51.470;9.894;2022-07-17T12:50:19;100453.78;;;31.35;22.93
25947;BME280;13745;51.470;9.894;2022-07-17T12:53:05;100446.13;;;31.42;22.64
25947;BME280;13745;51.470;9.894;2022-07-17T12:55:51;100451.28;;;31.54;22.40
25947;BME280;13745;51.470;9.894;2022-07-17T12:58:37;100451.28;;;31.64;22.59
25947;BME280;13745;51.470;9.894;2022-07-17T13:01:23;100454.44;;;31.76;22.42
25947;BME280;13745;51.470;9.894;2022-07-17T13:04:11;100441.53;;;31.89;22.43
25947;BME280;13745;51.470;9.894;2022-07-17T13:06:57;100455.97;;;31.88;22.38
25947;BME280;13745;51.470;9.894;2022-07-17T13:09:43;100444.81;;;31.81;23.02
25947;BME280;13745;51.470;9.894;2022-07-17T13:12:29;100450.41;;;31.81;22.78
25947;BME280;13745;51.470;9.894;2022-07-17T13:15:15;100439.19;;;31.81;22.89
25947;BME280;13745;51.470;9.894;2022-07-17T13:18:01;100441.59;;;31.82;22.89
25947;BME280;13745;51.470;9.894;2022-07-17T13:20:48;100432.75;;;31.87;23.12
25947;BME280;13745;51.470;9.894;2022-07-17T13:23:34;100437.66;;;31.66;23.03
25947;BME280;13745;51.470;9.894;2022-07-17T13:26:20;100446.53;;;31.48;23.58
25947;BME280;13745;51.470;9.894;2022-07-17T13:29:06;100447.81;;;31.33;23.82
25947;BME280;13745;51.470;9.894;2022-07-17T13:31:52;100441.84;;;31.21;24.15
25947;BME280;13745;51.470;9.894;2022-07-17T13:34:38;100442.63;;;31.25;23.87
25947;BME280;13745;51.470;9.894;2022-07-17T13:37:25;100437.03;;;31.21;23.94
25947;BME280;13745;51.470;9.894;2022-07-17T13:40:11;100441.06;;;31.13;24.16
25947;BME280;13745;51.470;9.894;2022-07-17T13:42:58;100441.84;;;31.04;24.01
25947;BME280;13745;51.470;9.894;2022-07-17T13:45:44;100438.69;;;30.95;24.30
25947;BME280;13745;51.470;9.894;2022-07-17T13:48:30;100432.28;;;30.91;24.31
25947;BME280;13745;51.470;9.894;2022-07-17T13:51:16;100438.66;;;30.91;24.37
25947;BME280;13745;51.470;9.894;2022-07-17T13:54:04;100432.28;;;30.98;23.85
25947;BME280;13745;51.470;9.894;2022-07-17T13:56:49;100426.66;;;30.98;23.82
25947;BME280;13745;51.470;9.894;2022-07-17T13:59:37;100429.09;;;30.96;23.91
25947;BME280;13745;51.470;9.894;2022-07-17T14:02:23;100411.47;;;30.92;23.86
25947;BME280;13745;51.470;9.894;2022-07-17T14:05:09;100419.13;;;30.81;23.99
25947;BME280;13745;51.470;9.894;2022-07-17T14:07:55;100419.50;;;30.76;24.19
25947;BME280;13745;51.470;9.894;2022-07-17T14:10:42;100413.94;;;30.69;24.22
25947;BME280;13745;51.470;9.894;2022-07-17T14:13:28;100408.34;;;30.66;24.32
25947;BME280;13745;51.470;9.894;2022-07-17T14:16:13;100416.34;;;30.64;24.21
25947;BME280;13745;51.470;9.894;2022-07-17T14:18:59;100416.34;;;30.61;24.36
25947;BME280;13745;51.470;9.894;2022-07-17T14:21:45;100408.34;;;30.52;24.19
25947;BME280;13745;51.470;9.894;2022-07-17T14:24:31;100408.34;;;30.45;24.05
25947;BME280;13745;51.470;9.894;2022-07-17T14:27:18;100403.16;;;30.44;24.27
25947;BME280;13745;51.470;9.894;2022-07-17T14:30:07;100406.72;;;30.41;24.36
25947;BME280;13745;51.470;9.894;2022-07-17T14:32:54;100401.13;;;30.38;24.65